createdAt,value
2022-07-26T00:01:36.729Z,8.18
2022-07-26T00:06:39.246Z,8.77
2022-07-26T00:11:41.114Z,7.88
2022-07-26T00:16:43.116Z,7.65
2022-07-26T00:21:45.594Z,7.90
2022-07-26T00:26:47.434Z,7.72
2022-07-26T00:31:49.330Z,7.78
2022-07-26T00:36:51.155Z,7.38
2022-07-26T00:41:52.891Z,7.95
2022-07-26T00:46:54.937Z,7.38
2022-07-26T00:51:56.705Z,7.63
2022-07-26T00:56:58.863Z,7.32
2022-07-26T01:02:01.390Z,7.05
2022-07-26T01:07:15.324Z,7.03
2022-07-26T01:12:18.283Z,6.75
2022-07-26T01:17:19.995Z,7.50
2022-07-26T01:22:21.829Z,6.47
2022-07-26T01:27:23.944Z,6.82
2022-07-26T01:32:25.729Z,7.43
2022-07-26T01:37:27.535Z,6.38
2022-07-26T01:42:29.342Z,6.82
2022-07-26T01:47:31.209Z,6.80
2022-07-26T01:52:33.421Z,6.35
2022-07-26T01:57:35.223Z,7.15
2022-07-26T02:02:37.168Z,6.53
2022-07-26T02:07:42.834Z,6.68
2022-07-26T02:12:46.384Z,6.63
2022-07-26T02:17:48.093Z,7.07
2022-07-26T02:22:49.800Z,7.72
2022-07-26T02:27:51.477Z,7.80
2022-07-26T02:32:53.307Z,8.57
2022-07-26T02:37:54.976Z,8.32
2022-07-26T02:42:56.837Z,7.93
2022-07-26T02:47:58.906Z,7.75
2022-07-26T02:53:00.811Z,7.18
2022-07-26T02:58:02.532Z,8.20
2022-07-26T03:03:04.290Z,7.60
2022-07-26T03:08:07.091Z,7.20
2022-07-26T03:13:08.904Z,5.93
2022-07-26T03:18:10.652Z,5.85
2022-07-26T03:23:12.352Z,6.32
2022-07-26T03:28:19.136Z,6.00
2022-07-26T03:33:21.371Z,5.35
2022-07-26T03:38:23.092Z,5.50
2022-07-26T03:43:24.775Z,5.03
2022-07-26T03:48:27.142Z,5.15
2022-07-26T03:53:29.004Z,4.93
2022-07-26T03:58:30.755Z,4.80
2022-07-26T04:03:32.523Z,4.55
2022-07-26T04:08:34.242Z,4.72
2022-07-26T04:13:36.657Z,4.50
2022-07-26T04:18:38.436Z,4.38
2022-07-26T04:23:40.098Z,4.53
2022-07-26T04:28:42.680Z,4.70
2022-07-26T04:33:44.511Z,3.90
2022-07-26T04:38:46.267Z,4.28
2022-07-26T04:43:48.023Z,4.05
2022-07-26T04:48:49.898Z,3.58
2022-07-26T04:53:51.817Z,3.95
2022-07-26T04:58:53.537Z,3.50
2022-07-26T05:03:55.247Z,3.75
2022-07-26T05:08:56.973Z,3.70
2022-07-26T05:13:58.778Z,3.88
2022-07-26T05:19:00.533Z,3.30
2022-07-26T05:24:02.310Z,3.15
2022-07-26T05:29:04.177Z,3.28
2022-07-26T05:34:06.289Z,3.53
2022-07-26T05:39:10.594Z,2.95
2022-07-26T05:44:15.954Z,2.95
2022-07-26T05:49:20.435Z,2.83
2022-07-26T05:54:23.052Z,2.47
2022-07-26T05:59:25.033Z,2.40
2022-07-26T06:04:27.517Z,2.75
2022-07-26T06:09:29.358Z,2.60
2022-07-26T06:14:31.155Z,2.58
2022-07-26T06:19:33.152Z,2.83
2022-07-26T06:24:34.931Z,2.50
2022-07-26T06:29:36.724Z,2.38
2022-07-26T06:34:38.557Z,2.05
2022-07-26T06:39:40.304Z,2.33
2022-07-26T06:44:42.181Z,1.92
2022-07-26T06:49:44.783Z,2.00
2022-07-26T06:54:46.568Z,2.47
2022-07-26T06:59:48.348Z,2.20
2022-07-26T07:04:50.125Z,2.95
2022-07-26T07:09:51.872Z,2.50
2022-07-26T07:14:53.588Z,1.95
2022-07-26T07:19:55.411Z,2.25
2022-07-26T07:24:57.684Z,2.20
2022-07-26T07:29:59.391Z,2.40
2022-07-26T07:35:01.120Z,2.15
2022-07-26T07:40:09.941Z,1.75
2022-07-26T07:45:11.871Z,2.00
2022-07-26T07:50:13.666Z,1.75
2022-07-26T07:55:36.697Z,1.80
2022-07-26T08:00:37.471Z,1.60
2022-07-26T08:05:40.343Z,1.45
2022-07-26T08:10:51.464Z,1.30
2022-07-26T08:15:55.817Z,1.77
2022-07-26T08:20:57.996Z,1.55
2022-07-26T08:26:04.726Z,1.50
2022-07-26T08:31:08.542Z,1.80
2022-07-26T08:36:10.271Z,1.65
2022-07-26T08:41:12.114Z,1.67
2022-07-26T08:46:14.331Z,1.90
2022-07-26T08:51:17.336Z,1.60
2022-07-26T08:56:19.044Z,2.20
2022-07-26T09:01:21.069Z,2.20
2022-07-26T09:06:28.170Z,2.00
2022-07-26T09:11:32.215Z,1.98
2022-07-26T09:16:39.215Z,2.13
2022-07-26T09:21:41.558Z,2.20
2022-07-26T09:26:55.875Z,2.55
2022-07-26T09:32:11.133Z,1.95
2022-07-26T09:37:13.356Z,2.33
2022-07-26T09:42:28.531Z,1.90
2022-07-26T09:47:39.208Z,1.98
2022-07-26T09:52:41.146Z,1.75
2022-07-26T09:57:42.876Z,1.80
2022-07-26T10:02:44.775Z,1.85
2022-07-26T10:07:46.649Z,1.88
2022-07-26T10:12:51.545Z,2.00
2022-07-26T10:17:54.520Z,1.95
2022-07-26T10:22:56.205Z,1.90
2022-07-26T10:27:58.413Z,1.58
2022-07-26T10:33:08.979Z,1.50
2022-07-26T10:38:27.335Z,1.45
2022-07-26T10:43:40.795Z,1.45
2022-07-26T10:48:57.242Z,1.67
2022-07-26T10:54:07.285Z,1.80
2022-07-26T10:59:09.378Z,1.50
2022-07-26T11:04:21.953Z,1.70
2022-07-26T11:09:23.673Z,1.90
2022-07-26T11:14:26.352Z,1.90
2022-07-26T11:19:29.306Z,2.13
2022-07-26T11:24:31.760Z,1.90
2022-07-26T11:29:38.246Z,1.90
2022-07-26T11:34:44.921Z,1.92
2022-07-26T11:39:47.385Z,2.10
2022-07-26T11:44:50.737Z,1.75
2022-07-26T11:50:11.605Z,1.90
2022-07-26T11:55:14.487Z,1.83
2022-07-26T12:00:18.205Z,1.80
2022-07-26T12:05:23.437Z,2.08
2022-07-26T12:10:26.322Z,2.40
2022-07-26T12:15:28.684Z,1.95
2022-07-26T12:20:30.615Z,2.53
2022-07-26T12:25:32.800Z,2.50
2022-07-26T12:30:37.472Z,2.47
2022-07-26T12:35:39.383Z,2.45
2022-07-26T12:40:41.952Z,2.50
2022-07-26T12:45:43.888Z,2.75
2022-07-26T12:50:45.809Z,2.40
2022-07-26T12:55:47.591Z,2.55
2022-07-26T13:00:49.513Z,2.70
2022-07-26T13:05:51.276Z,2.60
2022-07-26T13:10:56.788Z,2.38
2022-07-26T13:16:01.708Z,2.10
2022-07-26T13:21:03.423Z,2.42
2022-07-26T13:26:09.139Z,2.08
2022-07-26T13:31:12.749Z,2.78
2022-07-26T13:36:14.652Z,3.00
2022-07-26T13:41:17.357Z,3.10
2022-07-26T13:46:21.172Z,2.75
2022-07-26T13:51:23.093Z,2.88
2022-07-26T13:56:24.919Z,2.70
2022-07-26T14:01:44.532Z,2.80
2022-07-26T14:06:47.409Z,3.00
2022-07-26T14:11:49.435Z,3.00
2022-07-26T14:16:51.330Z,3.22
2022-07-26T14:21:59.268Z,2.33
2022-07-26T14:27:02.977Z,2.30
2022-07-26T14:32:05.275Z,2.10
2022-07-26T14:37:09.022Z,2.70
2022-07-26T14:42:29.393Z,2.50
2022-07-26T14:47:31.125Z,2.70
2022-07-26T14:52:32.877Z,2.60
2022-07-26T14:57:39.071Z,2.30
2022-07-26T15:02:43.579Z,2.30
2022-07-26T15:07:45.849Z,2.20
2022-07-26T15:12:47.736Z,2.30
2022-07-26T15:17:49.674Z,1.98
2022-07-26T15:22:54.507Z,2.20
2022-07-26T15:27:56.255Z,2.28
2022-07-26T15:32:58.910Z,2.05
2022-07-26T15:38:01.585Z,1.85
2022-07-26T15:43:03.357Z,2.33
2022-07-26T15:48:14.943Z,2.00
2022-07-26T15:53:19.362Z,1.65
2022-07-26T15:58:21.217Z,1.75
2022-07-26T16:03:22.946Z,1.70
2022-07-26T16:08:24.683Z,1.60
2022-07-26T16:13:26.436Z,1.77
2022-07-26T16:18:28.131Z,1.60
2022-07-26T16:23:30.157Z,1.88
2022-07-26T16:28:32.121Z,2.00
2022-07-26T16:33:33.880Z,2.08
2022-07-26T16:38:35.950Z,2.58
2022-07-26T16:43:38.231Z,2.30
2022-07-26T16:48:40.167Z,2.05
2022-07-26T16:53:42.155Z,2.42
2022-07-26T16:58:44.868Z,2.33
2022-07-26T17:03:46.668Z,2.60
2022-07-26T17:08:48.415Z,2.10
2022-07-26T17:13:50.193Z,2.30
2022-07-26T17:18:53.089Z,2.58
2022-07-26T17:23:54.926Z,2.53
2022-07-26T17:28:57.155Z,2.10
2022-07-26T17:33:59.103Z,2.10
2022-07-26T17:39:02.425Z,2.05
2022-07-26T17:44:04.830Z,1.90
2022-07-26T17:49:06.642Z,2.30
2022-07-26T17:54:08.968Z,1.80
2022-07-26T17:59:12.906Z,1.80
2022-07-26T18:04:17.126Z,1.75
2022-07-26T18:09:18.862Z,1.60
2022-07-26T18:14:20.714Z,1.08
2022-07-26T18:19:23.167Z,0.90
2022-07-26T18:24:25.694Z,0.80
2022-07-26T18:29:28.046Z,0.80
2022-07-26T18:34:29.816Z,0.75
2022-07-26T18:39:32.853Z,1.00
2022-07-26T18:44:37.944Z,1.10
2022-07-26T18:49:39.868Z,0.90
2022-07-26T18:54:42.227Z,0.90
2022-07-26T18:59:44.046Z,0.80
2022-07-26T19:04:45.782Z,0.90
2022-07-26T19:09:47.525Z,1.02
2022-07-26T19:14:50.026Z,1.10
2022-07-26T19:19:52.913Z,1.40
2022-07-26T19:24:56.524Z,1.20
2022-07-26T19:29:58.204Z,1.05
2022-07-26T19:35:00.139Z,5.50
2022-07-26T19:40:03.682Z,1.33
2022-07-26T19:45:06.348Z,1.30
2022-07-26T19:50:10.097Z,0.90
2022-07-26T19:55:11.856Z,1.13
2022-07-26T20:00:14.028Z,1.10
2022-07-26T20:05:16.121Z,1.13
2022-07-26T20:10:17.881Z,1.05
2022-07-26T20:15:22.447Z,1.10
2022-07-26T20:20:24.233Z,1.35
2022-07-26T20:25:26.297Z,1.10
2022-07-26T20:30:28.297Z,0.90
2022-07-26T20:35:31.393Z,1.20
2022-07-26T20:40:33.219Z,0.90
2022-07-26T20:45:35.905Z,1.30
2022-07-26T20:50:38.075Z,1.20
2022-07-26T20:55:40.540Z,1.10
2022-07-26T21:00:42.298Z,1.15
2022-07-26T21:05:44.964Z,1.27
2022-07-26T21:10:47.664Z,1.20
2022-07-26T21:15:51.265Z,1.52
2022-07-26T21:20:53.244Z,1.27
2022-07-26T21:26:00.456Z,1.30
2022-07-26T21:31:02.839Z,1.00
2022-07-26T21:36:04.936Z,1.25
2022-07-26T21:41:06.700Z,1.17
2022-07-26T21:46:12.584Z,1.35
2022-07-26T21:51:14.977Z,1.30
2022-07-26T21:56:16.690Z,1.30
2022-07-26T22:01:18.617Z,1.10
2022-07-26T22:06:20.652Z,1.27
2022-07-26T22:11:22.452Z,1.30
2022-07-26T22:16:24.225Z,1.17
2022-07-26T22:21:25.968Z,1.05
2022-07-26T22:26:31.164Z,1.20
2022-07-26T22:31:32.990Z,1.15
2022-07-26T22:36:34.782Z,1.00
2022-07-26T22:41:57.647Z,0.93
2022-07-26T22:46:58.200Z,1.10
2022-07-26T22:51:59.959Z,1.08
2022-07-26T22:57:01.762Z,1.15
2022-07-26T23:02:04.175Z,1.17
2022-07-26T23:07:05.890Z,1.25
2022-07-26T23:12:07.960Z,1.40
2022-07-26T23:17:09.664Z,0.80
2022-07-26T23:22:11.628Z,1.20
2022-07-26T23:27:18.061Z,1.38
2022-07-26T23:32:21.660Z,1.08
2022-07-26T23:37:23.369Z,1.20
2022-07-26T23:42:25.098Z,1.13
2022-07-26T23:47:27.001Z,1.00
2022-07-26T23:52:28.730Z,1.25
2022-07-26T23:57:30.445Z,0.85
